Time;durP1;ratioP1;P1;durP2;ratioP2;P2;SDS_P1;SDS_P2;PMS_P1;PMS_P2;Temp;Humidity;BMP_temperature;BMP_pressure;BME280_temperature;BME280_humidity;BME280_pressure;Samples;Min_cycle;Max_cycle;Signal;HPM_P1;HPM_P2
2023/07/11 00:01:17;;;;;;;2.25;1.17;;;;;;;20.09;61.23;101755.00;4975661;28;100206;-26
2023/07/11 00:03:42;;;;;;;1.65;0.77;;;;;;;20.02;61.27;101744.63;4974555;28;96641;-27
2023/07/11 00:06:15;;;;;;;4.88;0.88;;;;;;;19.95;62.45;101738.81;4976366;28;96842;-27
2023/07/11 00:08:40;;;;;;;4.90;1.30;;;;;;;20.00;61.38;101746.63;4975843;28;97447;-26
2023/07/11 00:11:09;;;;;;;2.72;0.98;;;;;;;20.01;61.65;101749.25;4975705;28;97394;-28
2023/07/11 00:13:35;;;;;;;2.05;1.00;;;;;;;20.02;61.79;101747.38;4975256;28;96627;-27
2023/07/11 00:16:05;;;;;;;1.50;0.70;;;;;;;20.00;62.17;101743.88;4974359;28;96865;-26
2023/07/11 00:18:31;;;;;;;1.25;0.70;;;;;;;19.91;61.96;101727.19;4973903;28;101211;-27
2023/07/11 00:20:56;;;;;;;2.05;1.02;;;;;;;19.87;62.46;101725.72;4975358;28;97257;-26
2023/07/11 00:23:22;;;;;;;8.18;1.27;;;;;;;19.88;62.66;101732.97;4975384;28;96544;-27
2023/07/11 00:25:47;;;;;;;2.08;0.85;;;;;;;19.89;62.60;101725.59;4975599;28;96766;-27
2023/07/11 00:28:13;;;;;;;5.57;1.45;;;;;;;19.83;62.62;101731.59;4975310;28;97993;-27
2023/07/11 00:30:41;;;;;;;2.30;1.00;;;;;;;19.81;63.09;101726.25;4975673;28;97257;-27
2023/07/11 00:33:10;;;;;;;2.20;0.70;;;;;;;19.82;62.92;101728.00;4975353;28;96757;-27
2023/07/11 00:35:39;;;;;;;2.92;0.70;;;;;;;19.78;63.70;101720.16;4973817;28;96885;-27
2023/07/11 00:38:05;;;;;;;2.80;1.08;;;;;;;19.79;63.57;101721.91;4973398;28;100803;-26
2023/07/11 00:40:31;;;;;;;1.50;1.10;;;;;;;19.77;63.94;101721.16;4973585;28;100820;-27
2023/07/11 00:43:01;;;;;;;3.22;0.90;;;;;;;19.75;63.78;101718.53;4975168;28;96514;-26
2023/07/11 00:45:49;;;;;;;5.60;0.88;;;;;;;19.73;64.34;101718.69;4975302;28;96723;-27
2023/07/11 00:48:17;;;;;;;2.33;0.82;;;;;;;19.69;63.70;101711.69;4982376;28;97467;-27
2023/07/11 00:50:44;;;;;;;4.90;1.15;;;;;;;19.69;63.88;101710.84;4973595;28;100780;-27
2023/07/11 00:53:11;;;;;;;1.95;0.80;;;;;;;19.63;64.21;101705.81;4973807;28;96551;-26
2023/07/11 00:55:37;;;;;;;4.70;1.40;;;;;;;19.59;64.27;101698.84;4974282;28;96915;-26
2023/07/11 00:58:03;;;;;;;2.88;1.17;;;;;;;19.63;64.40;101703.06;4975230;28;97388;-27
2023/07/11 01:00:28;;;;;;;3.40;1.00;;;;;;;19.51;64.20;101683.00;4973312;28;101029;-27
2023/07/11 01:02:54;;;;;;;1.58;0.90;;;;;;;19.59;64.20;101699.69;4974756;28;96548;-27
2023/07/11 01:05:19;;;;;;;5.60;1.05;;;;;;;19.60;64.10;101695.09;4975142;28;96812;-27
2023/07/11 01:07:44;;;;;;;3.67;1.30;;;;;;;19.58;63.40;101686.97;4974714;28;99109;-27
2023/07/11 01:10:10;;;;;;;1.92;0.82;;;;;;;19.63;63.55;101690.19;4974835;28;97246;-27
2023/07/11 01:12:36;;;;;;;2.10;1.08;;;;;;;19.59;62.79;101676.84;4975044;28;96530;-27
2023/07/11 01:15:03;;;;;;;2.55;1.02;;;;;;;19.61;62.70;101677.59;4974985;28;96828;-27
2023/07/11 01:17:33;;;;;;;2.85;0.80;;;;;;;19.59;62.87;101665.84;4974712;28;97418;-28
2023/07/11 01:20:02;;;;;;;3.28;1.00;;;;;;;19.64;63.05;101669.06;4973574;28;100674;-27
2023/07/11 01:22:29;;;;;;;2.65;0.70;;;;;;;19.70;63.60;101676.84;4974827;28;96676;-27
2023/07/11 01:25:00;;;;;;;1.60;0.77;;;;;;;19.69;63.33;101675.09;4973405;28;96632;-26
2023/07/11 01:27:26;;;;;;;1.50;0.85;;;;;;;19.68;63.32;101668.69;4972730;28;100093;-32
2023/07/11 01:29:52;;;;;;;2.17;1.10;;;;;;;19.59;63.33;101654.84;4973068;28;100888;-26
2023/07/11 01:32:19;;;;;;;5.20;1.15;;;;;;;19.58;64.04;101647.63;4973439;28;96629;-27
2023/07/11 01:34:44;;;;;;;3.72;1.23;;;;;;;19.64;63.59;101658.97;4973336;28;96916;-27
2023/07/11 01:37:10;;;;;;;5.10;1.10;;;;;;;19.59;63.58;101638.38;4978100;28;97891;-27
2023/07/11 01:39:36;;;;;;;3.25;0.93;;;;;;;19.60;63.56;101634.63;4976547;28;99132;-27
2023/07/11 01:42:02;;;;;;;5.18;1.35;;;;;;;19.64;63.31;101636.09;4976770;28;96665;-27
2023/07/11 01:44:28;;;;;;;3.35;1.25;;;;;;;19.59;63.41;101625.50;4976830;28;96912;-26
2023/07/11 01:46:54;;;;;;;5.93;1.27;;;;;;;19.59;63.44;101619.13;4976275;28;101623;-27
2023/07/11 01:49:19;;;;;;;4.65;1.05;;;;;;;19.61;63.31;101623.47;4977682;28;97850;-27
2023/07/11 01:51:46;;;;;;;3.70;0.85;;;;;;;19.60;63.50;101616.25;4977366;28;96702;-27
2023/07/11 01:54:11;;;;;;;1.83;1.10;;;;;;;19.55;62.86;101613.03;4976444;28;96881;-29
2023/07/11 01:56:37;;;;;;;3.00;1.10;;;;;;;19.51;63.59;101609.69;4976132;28;100927;-27
2023/07/11 01:59:03;;;;;;;3.95;1.00;;;;;;;19.46;63.64;101600.09;4977482;28;97566;-29
2023/07/11 02:01:28;;;;;;;2.85;1.20;;;;;;;19.48;63.25;101598.97;4977895;28;96709;-26
2023/07/11 02:03:54;;;;;;;2.47;1.17;;;;;;;19.43;63.03;101593.00;4977727;28;96894;-27
2023/07/11 02:06:20;;;;;;;2.90;1.23;;;;;;;19.39;62.64;101594.25;4976069;28;101332;-27
2023/07/11 02:08:46;;;;;;;1.88;0.93;;;;;;;19.37;62.79;101587.16;4978054;28;97747;-27
2023/07/11 02:11:11;;;;;;;1.98;0.70;;;;;;;19.42;62.90;101588.50;4976188;28;96674;-28
2023/07/11 02:13:37;;;;;;;6.72;1.42;;;;;;;19.39;62.80;101593.41;4977638;28;96879;-27
2023/07/11 02:16:02;;;;;;;2.00;1.02;;;;;;;19.42;62.56;101588.50;4976896;28;97922;-28
2023/07/11 02:18:27;;;;;;;2.50;0.93;;;;;;;19.38;62.65;101580.66;4977317;28;97322;-27
2023/07/11 02:20:55;;;;;;;2.53;0.80;;;;;;;19.36;62.67;101572.56;4977427;28;96602;-27
2023/07/11 02:23:21;;;;;;;3.58;1.42;;;;;;;19.39;62.84;101569.53;4976038;28;96835;-27
2023/07/11 02:25:46;;;;;;;2.42;1.17;;;;;;;19.35;63.15;101561.69;4976804;28;99334;-26
2023/07/11 02:28:11;;;;;;;2.90;1.13;;;;;;;19.37;63.13;101568.78;4976962;28;97183;-28
2023/07/11 02:30:37;;;;;;;1.52;0.98;;;;;;;19.35;62.89;101562.56;4977895;28;96529;-27
2023/07/11 02:33:02;;;;;;;3.70;1.08;;;;;;;19.34;63.95;101558.09;4977735;28;96908;-27
2023/07/11 02:35:28;;;;;;;5.00;1.17;;;;;;;19.34;63.28;101562.72;4977062;28;97991;-27
2023/07/11 02:37:53;;;;;;;2.15;1.25;;;;;;;19.30;63.82;101551.97;4977053;28;97722;-26
2023/07/11 02:40:18;;;;;;;2.95;1.10;;;;;;;19.27;63.75;101552.25;4976587;28;96619;-27
2023/07/11 02:42:44;;;;;;;3.13;1.05;;;;;;;19.25;63.90;101548.75;4976953;28;96842;-27
2023/07/11 02:45:10;;;;;;;2.70;1.38;;;;;;;19.27;63.98;101555.00;4976717;28;98521;-27
2023/07/11 02:47:35;;;;;;;2.50;1.10;;;;;;;19.24;63.30;101543.41;4976311;28;99210;-27
2023/07/11 02:50:00;;;;;;;1.55;1.10;;;;;;;19.26;64.13;101542.28;4977251;28;96721;-26
2023/07/11 02:52:27;;;;;;;4.07;1.27;;;;;;;19.25;63.53;101546.00;4977328;28;96888;-27
2023/07/11 02:54:52;;;;;;;2.88;1.35;;;;;;;19.19;63.75;101534.72;4975228;28;100948;-27
2023/07/11 02:57:17;;;;;;;2.40;1.17;;;;;;;19.21;63.39;101530.81;4975324;28;103096;-26
2023/07/11 02:59:43;;;;;;;4.25;1.23;;;;;;;19.18;64.26;101525.56;4976976;28;96644;-28
2023/07/11 03:02:08;;;;;;;2.75;1.17;;;;;;;19.17;63.30;101525.72;4977087;28;96865;-27
2023/07/11 03:04:33;;;;;;;2.53;1.20;;;;;;;19.20;63.20;101526.31;4976170;28;97943;-26
2023/07/11 03:06:59;;;;;;;2.60;0.93;;;;;;;19.18;63.64;101519.22;4976525;28;98047;-27
2023/07/11 03:09:26;;;;;;;2.35;1.25;;;;;;;19.17;63.84;101517.50;4976625;28;96705;-27
2023/07/11 03:11:52;;;;;;;2.70;1.35;;;;;;;19.10;63.19;101512.53;4975137;28;96861;-27
2023/07/11 03:14:19;;;;;;;1.42;0.98;;;;;;;19.08;63.47;101508.16;4975091;28;100925;-27
2023/07/11 03:16:44;;;;;;;1.25;1.00;;;;;;;19.08;63.31;101500.78;4974967;28;101146;-27
2023/07/11 03:19:10;;;;;;;7.13;1.20;;;;;;;19.08;63.67;101502.69;4976916;28;96701;-27
2023/07/11 03:21:35;;;;;;;1.98;1.00;;;;;;;19.05;63.25;101495.59;4977068;28;96754;-28
2023/07/11 03:24:01;;;;;;;1.83;0.90;;;;;;;19.04;63.43;101499.34;4976272;28;98026;-28
2023/07/11 03:26:26;;;;;;;2.38;1.08;;;;;;;19.07;63.24;101501.81;4975715;28;99177;-26
2023/07/11 03:28:52;;;;;;;1.85;1.08;;;;;;;19.03;63.62;101505.81;4976166;28;96632;-27
2023/07/11 03:31:17;;;;;;;2.47;1.33;;;;;;;18.99;63.27;101501.59;4975011;28;96802;-26
2023/07/11 03:33:45;;;;;;;1.40;0.85;;;;;;;19.00;63.19;101499.75;4976072;28;98084;-26
2023/07/11 03:36:11;;;;;;;0.85;0.68;;;;;;;19.02;63.32;101493.13;4974463;28;100690;-27
2023/07/11 03:38:36;;;;;;;2.05;1.02;;;;;;;19.01;63.07;101496.84;4976535;28;96556;-27
2023/07/11 03:41:01;;;;;;;3.17;1.17;;;;;;;19.00;63.01;101484.13;4976394;28;96869;-27
2023/07/11 03:43:27;;;;;;;2.25;1.00;;;;;;;18.99;63.12;101479.63;4975932;28;97961;-27
2023/07/11 03:45:52;;;;;;;2.90;1.25;;;;;;;19.00;63.32;101478.63;4976425;28;97447;-28
2023/07/11 03:48:18;;;;;;;1.50;0.85;;;;;;;19.01;63.41;101480.38;4975651;28;96782;-27
2023/07/11 03:50:44;;;;;;;2.58;0.82;;;;;;;19.02;63.63;101479.38;4976305;28;96922;-28
2023/07/11 03:53:10;;;;;;;3.78;1.10;;;;;;;19.00;63.35;101469.53;4975399;28;97909;-28
2023/07/11 03:55:35;;;;;;;1.88;1.05;;;;;;;18.99;63.81;101465.91;4975510;28;97317;-28
2023/07/11 03:58:01;;;;;;;1.25;0.80;;;;;;;19.03;63.36;101470.13;4975511;28;96668;-27
2023/07/11 04:00:26;;;;;;;3.05;1.25;;;;;;;19.01;63.06;101463.88;4976166;28;96814;-27
2023/07/11 04:02:51;;;;;;;2.42;0.75;;;;;;;19.01;63.69;101469.38;4974277;28;98450;-26
2023/07/11 04:05:17;;;;;;;1.55;0.85;;;;;;;18.98;64.00;101461.44;4975576;28;97735;-26
2023/07/11 04:07:42;;;;;;;3.97;0.93;;;;;;;18.99;63.63;101463.16;4976117;28;96783;-26
2023/07/11 04:10:08;;;;;;;1.63;0.90;;;;;;;18.94;63.51;101446.22;4976187;28;96793;-27
2023/07/11 04:12:34;;;;;;;1.92;0.80;;;;;;;19.02;63.56;101448.28;4975485;28;99270;-27
2023/07/11 04:14:59;;;;;;;3.25;0.70;;;;;;;18.96;63.47;101438.72;4974104;28;101054;-27
2023/07/11 04:17:25;;;;;;;1.63;0.93;;;;;;;19.02;63.58;101443.69;4973691;28;97068;-26
2023/07/11 04:19:51;;;;;;;4.68;0.75;;;;;;;19.02;63.50;101443.69;4974250;28;97023;-27
2023/07/11 04:22:17;;;;;;;3.33;0.60;;;;;;;19.02;63.56;101429.97;4975514;28;98020;-27
2023/07/11 04:24:42;;;;;;;2.00;0.90;;;;;;;19.03;63.62;101431.69;4973539;28;101021;-26
2023/07/11 04:27:08;;;;;;;6.30;1.10;;;;;;;19.06;63.80;101425.91;4975597;28;96736;-27
2023/07/11 04:29:33;;;;;;;3.58;0.75;;;;;;;19.10;63.75;101440.25;4975724;28;96742;-27
2023/07/11 04:31:59;;;;;;;3.65;1.02;;;;;;;19.07;63.82;101438.66;4975460;28;97765;-26
2023/07/11 04:34:24;;;;;;;2.88;0.90;;;;;;;19.10;63.57;101438.38;4975463;28;99634;-27
2023/07/11 04:36:49;;;;;;;3.03;0.88;;;;;;;19.13;63.56;101433.63;4975478;28;96541;-27
2023/07/11 04:39:15;;;;;;;3.47;1.02;;;;;;;19.10;64.02;101429.28;4975376;28;96787;-27
2023/07/11 04:41:41;;;;;;;2.90;0.90;;;;;;;19.11;64.08;101428.25;4974474;28;98087;-28
2023/07/11 04:44:06;;;;;;;3.33;0.73;;;;;;;19.17;64.09;101432.34;4974713;28;99256;-27
2023/07/11 04:46:31;;;;;;;1.50;0.98;;;;;;;19.17;63.86;101429.59;4975293;28;96517;-27
2023/07/11 04:48:57;;;;;;;1.58;0.75;;;;;;;19.16;64.78;101425.09;4975265;28;96863;-26
2023/07/11 04:51:22;;;;;;;3.55;1.10;;;;;;;19.16;64.24;101419.59;4975064;28;97981;-27
2023/07/11 04:53:47;;;;;;;3.63;1.08;;;;;;;19.14;64.53;101419.75;4974785;28;97807;-27
2023/07/11 04:56:13;;;;;;;2.38;0.98;;;;;;;19.14;64.70;101421.63;4975289;28;96569;-27
2023/07/11 04:58:38;;;;;;;2.10;0.82;;;;;;;19.14;64.72;101416.13;4975726;28;96757;-26
2023/07/11 05:01:06;;;;;;;3.90;1.33;;;;;;;19.13;64.88;101417.16;4974675;28;99787;-27
2023/07/11 05:03:32;;;;;;;6.88;1.10;;;;;;;19.15;65.44;101423.38;4973323;28;100725;-26
2023/07/11 05:05:58;;;;;;;4.97;1.33;;;;;;;19.13;65.94;101408.91;4974382;28;96528;-26
2023/07/11 05:08:24;;;;;;;5.45;1.67;;;;;;;19.13;65.05;101392.44;4975050;28;96805;-26
2023/07/11 05:10:52;;;;;;;5.50;1.30;;;;;;;19.20;65.20;101401.84;4972093;28;100993;-27
2023/07/11 05:13:18;;;;;;;4.47;1.13;;;;;;;19.27;65.41;101397.56;4973317;28;101203;-27
2023/07/11 05:15:44;;;;;;;3.67;1.63;;;;;;;19.31;64.90;101394.41;4973512;28;96556;-27
2023/07/11 05:18:09;;;;;;;3.63;1.38;;;;;;;19.36;64.72;101390.38;4975134;28;96884;-27
2023/07/11 05:20:35;;;;;;;2.85;1.33;;;;;;;19.40;65.20;101392.72;4974691;28;97559;-27
2023/07/11 05:23:00;;;;;;;4.03;1.30;;;;;;;19.47;64.65;101388.41;4974954;28;97321;-27
2023/07/11 05:25:25;;;;;;;4.07;1.40;;;;;;;19.48;65.23;101379.13;4975056;28;96477;-26
2023/07/11 05:27:51;;;;;;;4.00;1.48;;;;;;;19.52;65.47;101380.59;4974973;28;96911;-27
2023/07/11 05:30:16;;;;;;;2.92;1.33;;;;;;;19.61;65.96;101387.13;4974136;28;98139;-27
2023/07/11 05:32:41;;;;;;;2.88;1.20;;;;;;;19.64;64.54;101372.22;4974937;28;97249;-26
2023/07/11 05:35:07;;;;;;;5.53;1.77;;;;;;;19.72;65.05;101369.69;4974276;28;96754;-27
2023/07/11 05:37:32;;;;;;;6.28;2.00;;;;;;;19.78;64.81;101368.25;4974047;28;96672;-27
2023/07/11 05:39:58;;;;;;;3.22;1.88;;;;;;;19.83;64.64;101361.31;4972156;28;97909;-27
2023/07/11 05:42:23;;;;;;;7.57;2.42;;;;;;;19.85;64.83;101353.78;4973818;28;101316;-26
2023/07/11 05:44:48;;;;;;;4.82;2.35;;;;;;;19.95;64.59;101359.31;4974513;28;96566;-27
2023/07/11 05:47:14;;;;;;;5.07;2.00;;;;;;;20.01;64.89;101355.13;4974596;28;96898;-27
2023/07/11 05:49:39;;;;;;;5.68;2.70;;;;;;;20.11;64.16;101354.09;4974553;28;97554;-28
2023/07/11 05:52:05;;;;;;;4.35;1.90;;;;;;;20.19;63.44;101349.75;4974055;28;99190;-27
2023/07/11 05:54:30;;;;;;;4.15;1.73;;;;;;;20.30;63.63;101350.47;4974097;28;96505;-27
2023/07/11 05:56:55;;;;;;;4.45;2.08;;;;;;;20.35;63.54;101344.53;4972425;28;97354;-28
2023/07/11 05:59:21;;;;;;;3.80;1.50;;;;;;;20.46;63.14;101343.53;4971892;28;97820;-28
2023/07/11 06:01:46;;;;;;;3.45;1.63;;;;;;;20.60;62.92;101347.75;4971544;28;99194;-29
2023/07/11 06:04:14;;;;;;;4.80;1.90;;;;;;;20.66;62.94;101348.00;4972079;28;97086;-27
2023/07/11 06:06:43;;;;;;;2.03;1.30;;;;;;;20.72;62.14;101339.16;4971690;28;96898;-28
2023/07/11 06:09:17;;;;;;;3.92;1.98;;;;;;;20.83;62.18;101345.50;4971577;28;97404;-27
2023/07/11 06:11:44;;;;;;;2.78;1.85;;;;;;;20.92;62.35;101334.44;4972307;28;101045;-26
2023/07/11 06:14:10;;;;;;;2.50;1.42;;;;;;;20.94;61.92;101331.56;4973062;28;96802;-27
2023/07/11 06:16:36;;;;;;;3.97;1.80;;;;;;;21.00;62.26;101330.97;4973018;28;96853;-27
2023/07/11 06:19:01;;;;;;;4.00;1.90;;;;;;;21.10;61.65;101329.03;4973762;28;97205;-26
2023/07/11 06:21:26;;;;;;;4.13;2.08;;;;;;;21.24;61.61;101341.44;4974725;28;99541;-27
2023/07/11 06:23:52;;;;;;;3.97;1.70;;;;;;;21.29;61.83;101322.56;4977711;28;96589;-26
2023/07/11 06:26:17;;;;;;;5.25;1.85;;;;;;;21.45;61.92;101330.19;4977476;28;96779;-26
2023/07/11 06:28:43;;;;;;;4.40;2.17;;;;;;;21.55;61.25;101328.25;4977073;28;99019;-28
2023/07/11 06:31:10;;;;;;;2.42;1.30;;;;;;;21.68;60.50;101332.53;4977596;28;97398;-27
2023/07/11 06:33:36;;;;;;;3.60;1.58;;;;;;;21.77;60.50;101326.94;4976017;28;96715;-27
2023/07/11 06:36:03;;;;;;;5.88;1.77;;;;;;;21.92;60.25;101319.00;4977375;28;97066;-27
2023/07/11 06:38:29;;;;;;;3.50;1.63;;;;;;;22.08;59.54;101328.47;4975619;28;101076;-27
2023/07/11 06:40:56;;;;;;;2.25;1.30;;;;;;;22.23;59.21;101327.75;4976878;28;99303;-26
2023/07/11 06:43:23;;;;;;;4.03;1.40;;;;;;;22.29;59.04;101320.75;4975236;28;96851;-27
2023/07/11 06:45:51;;;;;;;2.38;1.63;;;;;;;22.42;58.33;101321.19;4975768;28;96855;-26
2023/07/11 06:48:18;;;;;;;7.85;1.83;;;;;;;22.46;57.86;101317.09;4974964;28;100984;-27
2023/07/11 06:50:50;;;;;;;4.63;1.67;;;;;;;22.61;57.95;101320.13;4975395;28;101250;-27
2023/07/11 06:53:16;;;;;;;2.20;1.35;;;;;;;22.76;57.39;101328.69;4976954;28;97315;-27
2023/07/11 06:55:46;;;;;;;4.38;1.60;;;;;;;22.84;56.52;101314.94;4976843;28;96861;-27
2023/07/11 06:58:11;;;;;;;4.88;1.73;;;;;;;22.92;56.36;101310.50;4975281;28;101100;-27
2023/07/11 07:00:37;;;;;;;6.38;1.63;;;;;;;23.03;56.38;101313.00;4977138;28;97845;-29
2023/07/11 07:03:02;;;;;;;3.10;1.48;;;;;;;23.18;56.56;101313.25;4976878;28;96718;-27
2023/07/11 07:05:28;;;;;;;2.90;1.52;;;;;;;23.27;56.48;101306.72;4976882;28;96669;-26
2023/07/11 07:07:53;;;;;;;4.55;1.70;;;;;;;23.39;55.62;101318.34;4976262;28;97470;-27
2023/07/11 07:10:18;;;;;;;3.75;1.42;;;;;;;23.42;55.98;101318.88;4976709;28;98362;-27
2023/07/11 07:12:44;;;;;;;4.68;1.77;;;;;;;23.55;55.52;101310.13;4976645;28;96785;-27
2023/07/11 07:15:09;;;;;;;6.03;1.58;;;;;;;23.69;55.01;101319.66;4976914;28;96820;-27
2023/07/11 07:17:35;;;;;;;1.92;1.15;;;;;;;23.76;55.23;101311.56;4976019;28;99693;-27
2023/07/11 07:20:00;;;;;;;6.80;1.83;;;;;;;24.00;55.22;101317.13;4976350;28;97768;-27
2023/07/11 07:22:25;;;;;;;5.78;1.67;;;;;;;24.11;54.54;101315.97;4976758;28;96647;-27
2023/07/11 07:24:51;;;;;;;5.50;1.55;;;;;;;24.19;54.61;101310.41;4977012;28;96784;-27
2023/07/11 07:27:17;;;;;;;1.98;1.15;;;;;;;24.26;54.11;101310.59;4976282;28;97898;-27
2023/07/11 07:29:43;;;;;;;2.53;1.15;;;;;;;24.40;54.47;101309.03;4974857;28;100928;-26
2023/07/11 07:32:08;;;;;;;2.67;1.15;;;;;;;24.42;53.24;101318.91;4974119;28;96676;-27
2023/07/11 07:34:34;;;;;;;3.20;1.35;;;;;;;24.56;53.60;101309.06;4976142;28;96825;-27
2023/07/11 07:36:59;;;;;;;7.43;1.67;;;;;;;24.58;52.99;101299.53;4975986;28;97996;-26
2023/07/11 07:39:24;;;;;;;4.32;1.35;;;;;;;24.64;53.07;101299.88;4976446;28;97382;-27
2023/07/11 07:41:50;;;;;;;4.15;1.33;;;;;;;24.78;53.26;101299.16;4976512;28;96547;-27
2023/07/11 07:44:15;;;;;;;3.75;1.20;;;;;;;24.96;52.96;101299.81;4976045;28;96944;-27
2023/07/11 07:46:41;;;;;;;2.13;1.15;;;;;;;24.96;52.53;101301.72;4975812;28;97995;-27
2023/07/11 07:49:06;;;;;;;4.05;1.35;;;;;;;24.99;51.88;101304.13;4976065;28;97899;-28
2023/07/11 07:51:31;;;;;;;2.45;1.00;;;;;;;25.12;52.26;101300.78;4976086;28;96587;-28
2023/07/11 07:53:57;;;;;;;3.60;1.35;;;;;;;25.37;52.08;101302.44;4976163;28;96776;-28
2023/07/11 07:56:23;;;;;;;4.15;1.15;;;;;;;25.40;51.74;101299.28;4975781;28;97710;-26
2023/07/11 07:58:49;;;;;;;2.58;1.05;;;;;;;25.41;51.49;101289.94;4974396;28;100855;-27
2023/07/11 08:01:17;;;;;;;4.63;1.58;;;;;;;25.53;51.24;101286.75;4974691;28;96500;-27
2023/07/11 08:03:43;;;;;;;3.05;1.20;;;;;;;25.72;51.34;101289.09;4974631;28;96826;-27
2023/07/11 08:06:10;;;;;;;3.25;1.33;;;;;;;25.85;51.09;101291.25;4975586;28;98027;-26
2023/07/11 08:08:35;;;;;;;3.20;1.15;;;;;;;25.99;50.99;101298.81;4974289;28;101087;-27
2023/07/11 08:11:02;;;;;;;1.98;1.20;;;;;;;26.08;50.60;101296.84;4976001;28;96556;-27
2023/07/11 08:13:28;;;;;;;2.22;1.10;;;;;;;26.13;49.78;101283.25;4974940;28;96870;-26
2023/07/11 08:15:54;;;;;;;2.38;1.13;;;;;;;26.32;49.56;101297.69;4974016;28;100317;-27
2023/07/11 08:18:19;;;;;;;1.85;1.00;;;;;;;26.43;49.32;101306.44;4975849;28;97256;-27
2023/07/11 08:20:44;;;;;;;2.38;0.88;;;;;;;26.50;49.52;101289.84;4975167;28;96501;-27
2023/07/11 08:23:10;;;;;;;4.47;1.08;;;;;;;26.69;49.53;101291.25;4975699;28;96762;-26
2023/07/11 08:25:36;;;;;;;4.72;1.25;;;;;;;26.69;49.36;101292.13;4975449;28;97519;-27
2023/07/11 08:28:02;;;;;;;5.07;1.30;;;;;;;26.67;49.22;101288.69;4975312;28;97929;-27
2023/07/11 08:30:28;;;;;;;2.20;1.27;;;;;;;26.73;49.20;101280.66;4975284;28;96583;-28
2023/07/11 08:32:53;;;;;;;3.58;1.17;;;;;;;26.59;47.80;101271.22;4975651;28;96876;-26
2023/07/11 08:35:18;;;;;;;2.75;0.98;;;;;;;26.54;47.65;101280.13;4975120;28;97392;-26
2023/07/11 08:37:44;;;;;;;4.55;1.23;;;;;;;26.40;48.73;101278.16;4975600;28;97763;-27
2023/07/11 08:40:18;;;;;;;4.63;1.33;;;;;;;26.45;48.03;101287.66;4975656;28;96519;-26
2023/07/11 08:42:44;;;;;;;3.00;1.30;;;;;;;26.57;47.40;101285.31;4974005;28;96741;-26
2023/07/11 08:45:21;;;;;;;4.18;1.40;;;;;;;26.63;48.00;101301.25;4972501;28;100889;-27
2023/07/11 08:48:09;;;;;;;3.63;1.40;;;;;;;26.66;47.64;101295.28;4973331;28;102945;-27
2023/07/11 08:50:59;;;;;;;2.55;1.05;;;;;;;26.81;45.92;101289.75;4973581;28;96621;-26
2023/07/11 08:53:50;;;;;;;3.88;1.23;;;;;;;26.93;46.99;101283.72;4973700;28;96750;-28
2023/07/11 08:56:22;;;;;;;2.47;1.02;;;;;;;26.96;47.47;101273.09;4973501;28;101242;-27
2023/07/11 08:58:49;;;;;;;2.50;1.15;;;;;;;27.20;47.52;101279.44;4973635;28;100846;-27
2023/07/11 09:01:47;;;;;;;4.68;1.10;;;;;;;27.36;46.55;101284.75;4973779;28;96653;-26
2023/07/11 09:04:16;;;;;;;2.33;1.02;;;;;;;27.30;46.81;101280.84;4974111;28;96836;-26
2023/07/11 09:06:52;;;;;;;2.75;1.02;;;;;;;27.38;45.73;101282.66;4973354;28;101181;-27
2023/07/11 09:09:18;;;;;;;2.22;1.17;;;;;;;27.57;45.48;101271.97;4974992;28;97918;-26
2023/07/11 09:12:19;;;;;;;4.07;1.08;;;;;;;27.72;44.16;101275.56;4973499;28;96604;-26
2023/07/11 09:14:47;;;;;;;2.90;1.33;;;;;;;27.43;45.80;101266.22;4975503;28;96529;-26
2023/07/11 09:17:35;;;;;;;1.98;1.00;;;;;;;27.50;43.96;101277.44;4974551;28;99433;-27
2023/07/11 09:20:06;;;;;;;2.40;1.20;;;;;;;27.76;45.73;101265.75;4973399;28;100965;-26
2023/07/11 09:22:54;;;;;;;3.30;0.90;;;;;;;28.00;44.74;101272.88;4973524;28;96769;-26
2023/07/11 09:25:34;;;;;;;2.15;1.10;;;;;;;28.13;43.80;101261.88;4975069;28;96557;-26
2023/07/11 09:28:10;;;;;;;2.63;1.15;;;;;;;28.10;43.84;101259.50;4973199;28;100838;-27
2023/07/11 09:30:46;;;;;;;2.80;1.85;;;;;;;28.21;43.88;101258.09;4973584;28;101127;-28
2023/07/11 09:33:11;;;;;;;2.63;0.88;;;;;;;28.35;43.92;101256.28;4973515;28;97390;-26
2023/07/11 09:35:37;;;;;;;5.95;1.23;;;;;;;28.36;44.38;101260.78;4974784;28;96800;-27
2023/07/11 09:38:18;;;;;;;2.10;1.00;;;;;;;28.43;43.60;101258.06;4972582;28;101188;-26
2023/07/11 09:40:53;;;;;;;3.57;0.97;;;;;;;28.54;43.61;101249.19;4974641;28;97480;-27
2023/07/11 09:43:18;;;;;;;3.58;1.17;;;;;;;28.46;44.43;101250.19;4973066;28;96682;-27
2023/07/11 09:45:47;;;;;;;1.63;1.05;;;;;;;28.53;44.33;101253.91;4974647;28;96824;-27
2023/07/11 09:48:24;;;;;;;4.35;0.98;;;;;;;28.62;44.14;101251.78;4972361;28;101393;-26
2023/07/11 09:51:01;;;;;;;3.90;1.20;;;;;;;28.68;43.89;101234.25;4972892;28;100766;-27
2023/07/11 09:53:29;;;;;;;2.38;1.17;;;;;;;28.83;44.03;101250.88;4973399;28;96634;-26
2023/07/11 09:56:00;;;;;;;6.28;1.52;;;;;;;28.84;43.51;101252.59;4975174;28;96770;-26
2023/07/11 09:58:32;;;;;;;1.75;0.88;;;;;;;28.66;44.05;101258.69;4976257;28;100495;-28
2023/07/11 10:01:04;;;;;;;3.13;1.17;;;;;;;28.84;43.77;101254.50;4976244;28;99006;-27
2023/07/11 10:03:34;;;;;;;2.65;1.02;;;;;;;28.79;44.10;101246.75;4975999;28;96688;-26
2023/07/11 10:06:01;;;;;;;3.08;1.38;;;;;;;28.63;43.17;101244.28;4976389;28;96882;-26
2023/07/11 10:08:30;;;;;;;5.25;1.58;;;;;;;28.63;43.42;101247.97;4977252;28;99504;-27
2023/07/11 10:11:01;;;;;;;3.75;1.17;;;;;;;28.83;42.84;101236.91;4977649;28;97562;-26
2023/07/11 10:13:27;;;;;;;2.08;1.27;;;;;;;28.70;43.96;101234.94;4976522;28;96628;-27
2023/07/11 10:15:55;;;;;;;2.72;1.30;;;;;;;28.92;43.62;101232.03;4976242;28;96875;-27
2023/07/11 10:18:25;;;;;;;8.15;1.42;;;;;;;29.05;43.72;101239.59;4977313;28;97503;-27
2023/07/11 10:20:55;;;;;;;5.53;1.30;;;;;;;28.75;43.63;101240.75;4977418;28;99554;-27
2023/07/11 10:23:24;;;;;;;3.88;1.73;;;;;;;28.73;44.32;101237.28;4976176;28;96613;-27
2023/07/11 10:26:09;;;;;;;4.97;1.52;;;;;;;28.66;43.35;101233.59;4976099;28;96986;-27
2023/07/11 10:28:39;;;;;;;2.78;1.60;;;;;;;28.90;44.15;101240.59;4976624;28;99515;-26
2023/07/11 10:31:13;;;;;;;4.30;1.42;;;;;;;29.18;43.81;101235.00;4975709;28;101145;-28
2023/07/11 10:33:53;;;;;;;2.67;1.35;;;;;;;29.35;42.94;101237.44;4977613;28;96495;-27
2023/07/11 10:36:45;;;;;;;2.40;1.13;;;;;;;29.34;43.15;101232.91;4975941;28;96771;-27
2023/07/11 10:39:47;;;;;;;2.63;1.25;;;;;;;29.11;42.91;101239.69;4976936;28;99280;-27
2023/07/11 10:42:31;;;;;;;6.90;1.65;;;;;;;29.21;43.42;101240.16;4975714;28;99052;-27
2023/07/11 10:45:11;;;;;;;3.75;1.33;;;;;;;29.49;43.68;101225.22;4977222;28;96807;-27
2023/07/11 10:47:50;;;;;;;4.65;1.60;;;;;;;29.55;42.99;101224.38;4975870;28;97272;-27
2023/07/11 10:50:25;;;;;;;2.33;1.25;;;;;;;29.66;42.02;101224.84;4977284;28;97953;-27
2023/07/11 10:52:57;;;;;;;2.08;1.10;;;;;;;29.79;43.00;101227.69;4975561;28;101047;-27
2023/07/11 10:55:27;;;;;;;;;;;;;;;29.78;42.56;101223.19;4975686;28;96777;-26
2023/07/11 10:57:53;;;;;;;6.18;1.40;;;;;;;29.75;42.00;101229.19;4977442;28;96777;-27
2023/07/11 11:00:48;;;;;;;4.55;1.70;;;;;;;29.41;42.69;101217.03;4975192;28;101090;-27
2023/07/11 11:03:16;;;;;;;5.00;1.58;;;;;;;29.45;43.17;101228.66;4975345;28;98986;-27
2023/07/11 11:06:02;;;;;;;2.95;1.42;;;;;;;29.63;43.36;101220.56;4976589;28;96511;-26
2023/07/11 11:09:07;;;;;;;3.17;1.20;;;;;;;29.83;42.19;101217.81;4976680;28;96638;-27
2023/07/11 11:11:38;;;;;;;5.00;1.50;;;;;;;29.95;42.53;101210.50;4973863;28;101400;-28
2023/07/11 11:14:10;;;;;;;;;;;;;;;29.95;42.16;101207.72;4975936;28;100690;-27
2023/07/11 11:16:45;;;;;;;5.68;1.50;;;;;;;30.09;41.82;101208.59;4975592;28;96905;-26
2023/07/11 11:19:34;;;;;;;4.00;1.80;;;;;;;29.83;42.64;101201.06;4976814;28;96518;-26
2023/07/11 11:22:05;;;;;;;3.10;1.10;;;;;;;29.66;42.48;101211.75;4976030;28;98026;-27
2023/07/11 11:24:48;;;;;;;5.93;1.25;;;;;;;29.34;42.71;101193.81;4976209;28;98863;-26
2023/07/11 11:27:53;;;;;;;3.47;1.45;;;;;;;29.46;43.17;101196.84;4975027;28;97883;-26
2023/07/11 11:30:33;;;;;;;2.95;1.42;;;;;;;29.40;42.51;101193.00;4975095;28;96910;-27